createdAt,value
2018-12-17T00:02:23.023Z,100973.44
2018-12-17T00:04:50.630Z,100973.06
2018-12-17T00:07:18.077Z,100976.84
2018-12-17T00:09:45.669Z,100970.17
2018-12-17T00:12:16.551Z,100974.08
2018-12-17T00:14:42.863Z,100978.78
2018-12-17T00:17:10.391Z,100975.03
2018-12-17T00:19:37.972Z,100979.23
2018-12-17T00:22:06.084Z,100980.11
2018-12-17T00:24:33.727Z,100980.57
2018-12-17T00:27:01.269Z,100975.05
2018-12-17T00:29:28.774Z,100973.38
2018-12-17T00:31:56.390Z,100966.08
2018-12-17T00:34:23.923Z,100968.59
2018-12-17T00:36:51.383Z,100965.67
2018-12-17T00:39:18.841Z,100968.70
2018-12-17T00:41:46.313Z,100965.83
2018-12-17T00:44:13.793Z,100966.28
2018-12-17T00:46:41.333Z,100966.31
2018-12-17T00:49:08.825Z,100968.70
2018-12-17T00:51:36.322Z,100970.41
2018-12-17T00:54:03.883Z,100971.68
2018-12-17T00:56:31.590Z,100980.13
2018-12-17T00:58:59.143Z,100976.45
2018-12-17T01:01:26.734Z,100982.42
2018-12-17T01:03:54.230Z,100984.55
2018-12-17T01:06:22.131Z,100988.74
2018-12-17T01:08:49.679Z,100989.86
2018-12-17T01:11:18.141Z,100984.78
2018-12-17T01:13:45.622Z,100990.84
2018-12-17T01:16:13.170Z,100990.02
2018-12-17T01:18:40.649Z,100993.39
2018-12-17T01:21:09.795Z,100994.00
2018-12-17T01:23:37.270Z,100998.70
2018-12-17T01:26:05.971Z,101002.59
2018-12-17T01:28:33.890Z,101003.52
2018-12-17T01:31:01.378Z,101000.06
2018-12-17T01:33:30.260Z,101008.55
2018-12-17T01:35:57.982Z,101009.39
2018-12-17T01:38:25.450Z,101012.73
2018-12-17T01:40:53.432Z,101015.73
2018-12-17T01:43:20.905Z,101011.48
2018-12-17T01:45:48.376Z,101019.64
2018-12-17T01:48:15.874Z,101020.06
2018-12-17T01:50:43.343Z,101019.23
2018-12-17T01:53:10.897Z,101018.39
2018-12-17T01:55:38.462Z,101022.98
2018-12-17T01:58:05.983Z,101018.30
2018-12-17T02:00:33.543Z,101023.07
2018-12-17T02:03:01.086Z,101016.17
2018-12-17T02:05:28.781Z,101025.92
2018-12-17T02:07:56.291Z,101016.95
2018-12-17T02:10:24.027Z,101016.95
2018-12-17T02:12:51.483Z,101013.91
2018-12-17T02:15:18.946Z,101015.93
2018-12-17T02:17:46.407Z,101011.38
2018-12-17T02:20:13.955Z,101013.52
2018-12-17T02:22:41.562Z,101011.47
2018-12-17T02:25:09.099Z,101004.16
2018-12-17T02:27:36.567Z,100998.53
2018-12-17T02:30:05.929Z,100998.47
2018-12-17T02:41:10.907Z,101014.86
2018-12-17T02:43:38.384Z,101019.09
2018-12-17T02:46:05.855Z,101026.55
2018-12-17T02:48:33.529Z,101032.89
2018-12-17T02:51:01.010Z,101025.77
2018-12-17T02:53:28.469Z,101029.63
2018-12-17T02:55:56.081Z,101027.90
2018-12-17T02:58:23.678Z,101035.98
2018-12-17T03:00:51.184Z,101045.22
2018-12-17T03:03:18.748Z,101047.81
2018-12-17T03:05:46.250Z,101041.53
2018-12-17T03:08:13.848Z,101044.88
2018-12-17T03:10:41.399Z,101043.73
2018-12-17T03:13:08.871Z,101048.38
2018-12-17T03:15:36.324Z,101059.16
2018-12-17T03:18:04.009Z,101065.97
2018-12-17T03:20:31.681Z,101066.38
2018-12-17T03:22:59.166Z,101069.56
2018-12-17T03:25:26.708Z,101073.40
2018-12-17T03:27:54.317Z,101075.36
2018-12-17T03:30:21.808Z,101079.94
2018-12-17T03:32:49.300Z,101078.20
2018-12-17T03:35:16.758Z,101080.03
2018-12-17T03:37:44.248Z,101080.53
2018-12-17T03:40:11.860Z,101086.16
2018-12-17T03:42:39.384Z,101087.06
2018-12-17T03:45:07.063Z,101097.69
2018-12-17T03:47:34.518Z,101094.59
2018-12-17T03:50:01.985Z,101099.73
2018-12-17T03:52:29.439Z,101095.92
2018-12-17T03:54:57.009Z,101104.44
2018-12-17T03:57:24.472Z,101106.17
2018-12-17T03:59:52.069Z,101107.54
2018-12-17T04:02:19.551Z,101117.30
2018-12-17T04:04:47.682Z,101108.03
2018-12-17T04:07:15.201Z,101113.17
2018-12-17T04:09:42.735Z,101114.76
2018-12-17T04:12:10.199Z,101108.88
2018-12-17T04:14:37.655Z,101113.89
2018-12-17T04:17:05.371Z,101110.58
2018-12-17T04:19:32.850Z,101118.16
2018-12-17T04:22:00.471Z,101111.97
2018-12-17T04:24:28.372Z,101108.96
2018-12-17T04:26:55.904Z,101117.88
2018-12-17T04:29:23.459Z,101125.51
2018-12-17T04:31:51.267Z,101121.38
2018-12-17T04:34:18.814Z,101114.20
2018-12-17T04:36:46.278Z,101124.36
2018-12-17T04:39:14.037Z,101126.06
2018-12-17T04:41:41.639Z,101127.30
2018-12-17T04:44:09.179Z,101127.73
2018-12-17T04:46:36.767Z,101131.92
2018-12-17T04:49:04.332Z,101139.55
2018-12-17T04:51:31.966Z,101135.73
2018-12-17T04:54:02.719Z,101142.15
2018-12-17T04:56:30.545Z,101137.16
2018-12-17T04:58:58.025Z,101145.25
2018-12-17T05:01:25.544Z,101140.16
2018-12-17T05:03:52.997Z,101139.33
2018-12-17T05:06:20.553Z,101145.74
2018-12-17T05:08:48.879Z,101142.73
2018-12-17T05:11:16.355Z,101137.81
2018-12-17T05:13:43.792Z,101140.84
2018-12-17T05:16:11.327Z,101145.13
2018-12-17T05:18:38.788Z,101146.86
2018-12-17T05:21:06.286Z,101154.11
2018-12-17T05:23:33.805Z,101160.00
2018-12-17T05:26:01.280Z,101169.82
2018-12-17T05:28:28.746Z,101170.69
2018-12-17T05:30:56.223Z,101176.17
2018-12-17T05:33:23.955Z,101180.42
2018-12-17T05:35:51.428Z,101183.83
2018-12-17T05:38:18.872Z,101185.01
2018-12-17T05:40:46.531Z,101190.30
2018-12-17T05:43:14.107Z,101195.30
2018-12-17T05:45:41.574Z,101191.82
2018-12-17T05:48:09.044Z,101194.50
2018-12-17T05:50:36.595Z,101195.94
2018-12-17T05:53:04.275Z,101206.06
2018-12-17T05:55:31.800Z,101203.66
2018-12-17T05:57:59.399Z,101208.59
2018-12-17T06:00:27.412Z,101207.02
2018-12-17T06:02:54.972Z,101213.34
2018-12-17T06:05:22.468Z,101220.66
2018-12-17T06:07:50.048Z,101218.61
2018-12-17T06:10:17.563Z,101222.80
2018-12-17T06:12:45.035Z,101221.22
2018-12-17T06:15:12.496Z,101221.53
2018-12-17T06:17:40.281Z,101216.48
2018-12-17T06:20:08.109Z,101220.38
2018-12-17T06:22:35.721Z,101224.36
2018-12-17T06:25:03.496Z,101229.81
2018-12-17T06:27:36.760Z,101238.80
2018-12-17T06:30:00.685Z,101235.02
2018-12-17T06:32:28.180Z,101233.81
2018-12-17T06:34:55.749Z,101235.25
2018-12-17T06:37:29.259Z,101229.91
2018-12-17T06:39:57.159Z,101232.95
2018-12-17T06:42:24.700Z,101230.47
2018-12-17T06:44:53.466Z,101227.09
2018-12-17T06:47:21.000Z,101223.28
2018-12-17T06:49:48.581Z,101219.02
2018-12-17T06:52:16.122Z,101217.19
2018-12-17T06:54:43.736Z,101227.14
2018-12-17T06:57:11.292Z,101228.31
2018-12-17T06:59:42.649Z,101234.38
2018-12-17T07:02:08.787Z,101245.17
2018-12-17T07:04:36.704Z,101242.80
2018-12-17T07:07:04.214Z,101247.73
2018-12-17T07:09:31.743Z,101257.70
2018-12-17T07:11:59.271Z,101260.44
2018-12-17T07:14:26.831Z,101263.61
2018-12-17T07:16:54.392Z,101260.30
2018-12-17T07:19:21.990Z,101263.90
2018-12-17T07:21:49.710Z,101275.73
2018-12-17T07:24:17.238Z,101274.06
2018-12-17T07:26:44.720Z,101275.00
2018-12-17T07:29:12.243Z,101278.75
2018-12-17T07:31:39.835Z,101277.97
2018-12-17T07:34:08.684Z,101290.05
2018-12-17T07:36:40.771Z,101291.00
2018-12-17T07:39:08.282Z,101289.83
2018-12-17T07:41:36.431Z,101288.47
2018-12-17T07:44:04.103Z,101293.39
2018-12-17T07:46:32.252Z,101298.75
2018-12-17T07:48:59.892Z,101289.62
2018-12-17T07:51:27.451Z,101288.92
2018-12-17T07:53:54.965Z,101284.23
2018-12-17T07:56:22.461Z,101290.30
2018-12-17T07:58:49.958Z,101297.25
2018-12-17T08:01:17.719Z,101297.55
2018-12-17T08:03:45.192Z,101294.47
2018-12-17T08:06:12.667Z,101297.28
2018-12-17T08:08:40.207Z,101296.31
2018-12-17T08:11:07.674Z,101298.81
2018-12-17T08:13:35.336Z,101298.75
2018-12-17T08:16:02.961Z,101307.14
2018-12-17T08:18:30.533Z,101311.89
2018-12-17T08:20:58.232Z,101319.72
2018-12-17T08:23:25.755Z,101323.45
2018-12-17T08:25:53.219Z,101329.64
2018-12-17T08:28:20.745Z,101326.05
2018-12-17T08:30:48.282Z,101317.25
2018-12-17T08:33:15.819Z,101315.27
2018-12-17T08:35:43.339Z,101317.51
2018-12-17T08:38:10.937Z,101319.18
2018-12-17T08:40:38.608Z,101314.64
2018-12-17T08:43:06.523Z,101315.25
2018-12-17T08:45:34.091Z,101324.86
2018-12-17T08:48:02.383Z,101320.64
2018-12-17T08:50:29.946Z,101322.45
2018-12-17T08:52:57.523Z,101315.93
2018-12-17T08:55:25.133Z,101320.84
2018-12-17T08:57:52.638Z,101313.88
2018-12-17T09:00:20.095Z,101313.23
2018-12-17T09:02:47.699Z,101320.60
2018-12-17T09:05:16.019Z,101311.58
2018-12-17T09:07:43.546Z,101314.59
2018-12-17T09:10:11.024Z,101315.70
2018-12-17T09:12:38.591Z,101318.10
2018-12-17T09:15:06.431Z,101316.61
2018-12-17T09:17:33.909Z,101310.47
2018-12-17T09:20:02.534Z,101326.64
2018-12-17T09:22:30.142Z,101327.13
2018-12-17T09:24:57.797Z,101334.05
2018-12-17T09:27:25.385Z,101336.03
2018-12-17T09:29:52.871Z,101338.73
2018-12-17T09:32:20.452Z,101347.27
2018-12-17T09:34:47.952Z,101343.92
2018-12-17T09:37:16.048Z,101346.00
2018-12-17T09:39:43.572Z,101355.55
2018-12-17T09:42:11.054Z,101352.75
2018-12-17T09:44:38.607Z,101354.98
2018-12-17T09:47:06.139Z,101349.52
2018-12-17T09:49:33.651Z,101351.44
2018-12-17T09:52:01.625Z,101353.23
2018-12-17T09:54:29.097Z,101342.77
2018-12-17T09:56:56.690Z,101353.91
2018-12-17T09:59:24.214Z,101359.61
2018-12-17T10:01:52.073Z,101355.41
2018-12-17T10:04:19.540Z,101357.96
2018-12-17T10:06:47.112Z,101360.51
2018-12-17T10:09:14.706Z,101351.25
2018-12-17T10:11:42.267Z,101352.61
2018-12-17T10:14:10.018Z,101362.19
2018-12-17T10:16:37.613Z,101363.98
2018-12-17T10:19:05.113Z,101367.37
2018-12-17T10:21:32.820Z,101367.37
2018-12-17T10:24:00.280Z,101365.37
2018-12-17T10:26:27.970Z,101368.47
2018-12-17T10:28:55.479Z,101359.52
2018-12-17T10:31:22.951Z,101361.14
2018-12-17T10:33:50.423Z,101358.59
2018-12-17T10:36:17.888Z,101358.13
2018-12-17T10:38:45.515Z,101364.18
2018-12-17T10:41:13.317Z,101355.90
2018-12-17T10:43:40.825Z,101349.13
2018-12-17T10:46:08.442Z,101347.10
2018-12-17T10:48:35.949Z,101346.72
2018-12-17T10:51:03.648Z,101339.08
2018-12-17T10:53:31.128Z,101340.44
2018-12-17T10:55:58.723Z,101339.22
2018-12-17T10:58:26.408Z,101336.70
2018-12-17T11:00:59.640Z,101338.09
2018-12-17T11:03:29.232Z,101341.06
2018-12-17T11:05:57.487Z,101347.17
2018-12-17T11:08:24.961Z,101335.32
2018-12-17T11:10:52.521Z,101334.29
2018-12-17T11:13:20.041Z,101339.36
2018-12-17T11:15:47.610Z,101340.34
2018-12-17T11:18:15.133Z,101336.19
2018-12-17T11:20:42.759Z,101344.30
2018-12-17T11:23:10.209Z,101334.59
2018-12-17T11:25:37.684Z,101333.45
2018-12-17T11:28:05.207Z,101331.72
2018-12-17T11:30:32.759Z,101333.05
2018-12-17T11:33:00.415Z,101327.16
2018-12-17T11:35:27.910Z,101318.37
2018-12-17T11:37:55.460Z,101322.36
2018-12-17T11:40:23.017Z,101312.62
2018-12-17T11:42:50.556Z,101323.30
2018-12-17T11:45:18.116Z,101325.39
2018-12-17T11:47:45.652Z,101329.05
2018-12-17T11:50:13.267Z,101324.89
2018-12-17T11:52:40.896Z,101319.84
2018-12-17T11:55:08.687Z,101321.61
2018-12-17T12:00:32.042Z,101314.69
2018-12-17T12:02:59.603Z,101322.49
2018-12-17T12:05:27.166Z,101321.39
2018-12-17T12:07:54.728Z,101316.70
2018-12-17T12:10:22.244Z,101317.25
2018-12-17T12:12:49.752Z,101326.25
2018-12-17T12:15:17.477Z,101317.30
2018-12-17T12:17:45.168Z,101323.34
2018-12-17T12:20:12.936Z,101320.05
2018-12-17T12:22:40.486Z,101320.12
2018-12-17T12:25:08.128Z,101333.02
2018-12-17T12:27:35.583Z,101328.05
2018-12-17T12:30:04.722Z,101334.22
2018-12-17T12:32:32.185Z,101322.44
2018-12-17T12:34:59.751Z,101328.95
2018-12-17T12:37:27.234Z,101331.98
2018-12-17T12:39:54.712Z,101327.41
2018-12-17T12:42:22.218Z,101332.92
2018-12-17T12:44:49.770Z,101329.14
2018-12-17T12:47:17.369Z,101321.02
2018-12-17T12:49:44.852Z,101330.47
2018-12-17T12:52:12.333Z,101331.33
2018-12-17T12:54:40.123Z,101335.05
2018-12-17T12:57:07.728Z,101332.09
2018-12-17T12:59:35.169Z,101335.47
2018-12-17T13:02:02.666Z,101335.93
2018-12-17T13:04:30.415Z,101344.00
2018-12-17T13:06:57.918Z,101342.37
2018-12-17T13:09:25.421Z,101346.96
2018-12-17T13:11:53.053Z,101346.60
2018-12-17T13:14:20.566Z,101350.89
2018-12-17T13:16:48.232Z,101339.28
2018-12-17T13:19:15.728Z,101343.64
2018-12-17T13:21:43.256Z,101339.83
2018-12-17T13:24:10.799Z,101347.77
2018-12-17T13:26:38.355Z,101344.50
2018-12-17T13:29:06.014Z,101351.39
2018-12-17T13:31:33.475Z,101351.45
2018-12-17T13:34:00.979Z,101357.50
2018-12-17T13:36:28.727Z,101359.30
2018-12-17T13:38:56.457Z,101357.63
2018-12-17T13:41:24.225Z,101349.56
2018-12-17T13:43:51.716Z,101355.87
2018-12-17T13:46:19.544Z,101358.91
2018-12-17T13:48:47.224Z,101363.61
2018-12-17T13:54:15.234Z,101363.90
2018-12-17T13:56:42.762Z,101369.39
2018-12-17T13:59:10.231Z,101371.47
2018-12-17T14:01:37.746Z,101377.78
2018-12-17T14:04:06.584Z,101376.86
2018-12-17T14:06:34.207Z,101380.16
2018-12-17T14:09:02.262Z,101381.83
2018-12-17T14:11:31.272Z,101389.48
2018-12-17T14:13:58.960Z,101387.80
2018-12-17T14:16:28.764Z,101383.92
2018-12-17T14:19:02.066Z,101395.41
2018-12-17T14:21:35.166Z,101389.77
2018-12-17T14:24:02.819Z,101391.03
2018-12-17T14:26:30.447Z,101394.88
2018-12-17T14:28:57.906Z,101396.15
2018-12-17T14:31:28.870Z,101397.02
2018-12-17T14:33:54.999Z,101394.06
2018-12-17T14:36:22.498Z,101397.42
2018-12-17T14:38:50.047Z,101406.34
2018-12-17T14:41:17.510Z,101401.64
2018-12-17T14:43:45.104Z,101407.17
2018-12-17T14:46:13.499Z,101399.91
2018-12-17T14:48:41.014Z,101400.38
2018-12-17T14:51:08.705Z,101408.89
2018-12-17T14:53:36.343Z,101411.46
2018-12-17T14:56:03.955Z,101422.39
2018-12-17T14:58:31.515Z,101430.13
2018-12-17T15:00:59.055Z,101433.55
2018-12-17T15:03:26.503Z,101431.34
2018-12-17T15:05:54.091Z,101433.47
2018-12-17T15:08:21.519Z,101433.08
2018-12-17T15:10:49.199Z,101436.86
2018-12-17T15:13:16.741Z,101442.41
2018-12-17T15:15:44.886Z,101441.55
2018-12-17T15:18:12.790Z,101445.38
2018-12-17T15:20:40.490Z,101447.98
2018-12-17T15:23:08.178Z,101447.98
2018-12-17T15:25:35.690Z,101453.09
2018-12-17T15:28:03.165Z,101450.95
2018-12-17T15:30:30.799Z,101454.31
2018-12-17T15:32:58.273Z,101461.55
2018-12-17T15:35:26.255Z,101465.47
2018-12-17T15:37:53.810Z,101468.42
2018-12-17T15:40:21.594Z,101468.89
2018-12-17T15:42:49.268Z,101473.18
2018-12-17T15:45:16.902Z,101475.33
2018-12-17T15:47:44.588Z,101480.86
2018-12-17T15:50:12.113Z,101481.66
2018-12-17T15:52:39.580Z,101480.43
2018-12-17T15:55:07.161Z,101483.39
2018-12-17T15:57:34.606Z,101482.58
2018-12-17T16:00:02.148Z,101487.70
2018-12-17T16:02:29.854Z,101488.95
2018-12-17T16:04:57.737Z,101494.06
2018-12-17T16:07:26.120Z,101498.73
2018-12-17T16:09:55.707Z,101501.72
2018-12-17T16:12:23.348Z,101508.91
2018-12-17T16:14:50.846Z,101506.36
2018-12-17T16:17:18.356Z,101504.22
2018-12-17T16:19:46.399Z,101514.89
2018-12-17T16:22:13.943Z,101518.20
2018-12-17T16:24:42.149Z,101516.98
2018-12-17T16:27:09.763Z,101518.25
2018-12-17T16:29:37.288Z,101527.59
2018-12-17T16:32:04.846Z,101528.47
2018-12-17T16:34:32.420Z,101528.93
2018-12-17T16:37:00.114Z,101521.19
2018-12-17T16:39:28.116Z,101523.30
2018-12-17T16:41:55.669Z,101526.73
2018-12-17T16:44:23.272Z,101525.09
2018-12-17T16:46:50.888Z,101533.62
2018-12-17T16:49:18.480Z,101537.40
2018-12-17T16:51:46.051Z,101541.69
2018-12-17T16:54:13.551Z,101537.88
2018-12-17T16:56:41.124Z,101537.48
2018-12-17T16:59:08.748Z,101538.02
2018-12-17T17:01:36.371Z,101546.16
2018-12-17T17:04:04.077Z,101548.28
2018-12-17T17:06:31.589Z,101549.89
2018-12-17T17:08:59.229Z,101554.94
2018-12-17T17:11:26.696Z,101558.77
2018-12-17T17:13:54.161Z,101561.32
2018-12-17T17:16:21.855Z,101571.94
2018-12-17T17:18:49.343Z,101576.63
2018-12-17T17:21:16.799Z,101575.36
2018-12-17T17:23:44.355Z,101582.20
2018-12-17T17:26:11.864Z,101580.52
2018-12-17T17:28:39.570Z,101587.33
2018-12-17T17:31:07.260Z,101590.33
2018-12-17T17:33:35.436Z,101591.60
2018-12-17T17:36:02.976Z,101590.75
2018-12-17T17:38:30.507Z,101597.22
2018-12-17T17:40:57.966Z,101594.23
2018-12-17T17:43:25.598Z,101607.48
2018-12-17T17:45:53.287Z,101606.67
2018-12-17T17:48:20.764Z,101597.77
2018-12-17T17:50:48.600Z,101604.99
2018-12-17T17:53:16.219Z,101601.24
2018-12-17T17:55:43.819Z,101609.33
2018-12-17T17:58:11.348Z,101598.77
2018-12-17T18:00:38.829Z,101603.91
2018-12-17T18:03:16.405Z,101614.63
2018-12-17T18:05:44.180Z,101616.26
2018-12-17T18:08:12.816Z,101625.66
2018-12-17T18:10:40.331Z,101623.92
2018-12-17T18:13:07.785Z,101630.77
2018-12-17T18:15:35.313Z,101629.95
2018-12-17T18:18:02.817Z,101635.95
2018-12-17T18:20:30.292Z,101636.48
2018-12-17T18:22:57.791Z,101634.73
2018-12-17T18:25:25.406Z,101637.31
2018-12-17T18:27:52.917Z,101639.05
2018-12-17T18:30:20.560Z,101648.86
2018-12-17T18:32:48.239Z,101647.64
2018-12-17T18:35:16.267Z,101644.32
2018-12-17T18:37:43.725Z,101647.83
2018-12-17T18:40:11.351Z,101644.78
2018-12-17T18:42:38.796Z,101653.38
2018-12-17T18:45:08.096Z,101656.87
2018-12-17T18:47:35.894Z,101662.39
2018-12-17T18:50:04.373Z,101660.25
2018-12-17T18:52:31.874Z,101663.48
2018-12-17T18:54:59.487Z,101659.48
2018-12-17T18:57:27.097Z,101666.27
2018-12-17T18:59:54.669Z,101670.95
2018-12-17T19:02:22.292Z,101676.06
2018-12-17T19:04:51.607Z,101675.21
2018-12-17T19:07:19.056Z,101679.10
2018-12-17T19:09:46.672Z,101677.73
2018-12-17T19:12:14.185Z,101680.78
2018-12-17T19:14:41.672Z,101679.56
2018-12-17T19:17:09.410Z,101686.84
2018-12-17T19:19:37.789Z,101678.31
2018-12-17T19:22:05.279Z,101686.03
2018-12-17T19:24:32.746Z,101683.83
2018-12-17T19:27:00.859Z,101682.61
2018-12-17T19:29:28.997Z,101691.08
2018-12-17T19:31:57.373Z,101691.14
2018-12-17T19:34:25.279Z,101696.27
2018-12-17T19:36:52.808Z,101700.57
2018-12-17T19:39:20.291Z,101704.45
2018-12-17T19:41:47.760Z,101709.13
2018-12-17T19:44:15.631Z,101716.44
2018-12-17T19:46:43.130Z,101715.11
2018-12-17T19:49:10.856Z,101720.27
2018-12-17T19:51:38.382Z,101722.85
2018-12-17T19:54:06.636Z,101719.81
2018-12-17T19:56:36.808Z,101717.74
2018-12-17T19:59:04.533Z,101725.06
2018-12-17T20:01:32.103Z,101727.96
2018-12-17T20:03:59.630Z,101724.77
2018-12-17T20:06:27.123Z,101723.17
2018-12-17T20:08:54.999Z,101723.72
2018-12-17T20:11:22.650Z,101723.64
2018-12-17T20:13:50.149Z,101726.68
2018-12-17T20:16:17.793Z,101728.48
2018-12-17T20:18:47.087Z,101730.63
2018-12-17T20:21:14.747Z,101730.66
2018-12-17T20:23:42.295Z,101732.40
2018-12-17T20:26:10.642Z,101731.18
2018-12-17T20:28:38.138Z,101734.63
2018-12-17T20:31:06.021Z,101739.82
2018-12-17T20:33:34.479Z,101740.69
2018-12-17T20:36:02.153Z,101743.25
2018-12-17T20:38:29.828Z,101751.80
2018-12-17T20:40:57.409Z,101748.84
2018-12-17T20:43:25.756Z,101752.73
2018-12-17T20:45:53.297Z,101756.56
2018-12-17T20:48:20.774Z,101756.16
2018-12-17T20:50:48.232Z,101750.20
2018-12-17T20:53:15.757Z,101762.95
2018-12-17T20:55:43.248Z,101759.59
2018-12-17T20:58:10.968Z,101769.26
2018-12-17T21:00:38.625Z,101766.33
2018-12-17T21:03:06.162Z,101768.94
2018-12-17T21:05:33.947Z,101774.05
2018-12-17T21:08:01.443Z,101767.34
2018-12-17T21:10:28.901Z,101773.75
2018-12-17T21:12:56.380Z,101776.39
2018-12-17T21:15:23.860Z,101781.88
2018-12-17T21:17:51.672Z,101781.50
2018-12-17T21:20:19.330Z,101780.66
2018-12-17T21:22:47.706Z,101781.09
2018-12-17T21:25:15.275Z,101777.64
2018-12-17T21:27:43.136Z,101777.23
2018-12-17T21:30:11.548Z,101781.88
2018-12-17T21:32:39.021Z,101781.82
2018-12-17T21:35:06.873Z,101788.12
2018-12-17T21:37:34.494Z,101782.27
2018-12-17T21:42:57.793Z,101791.64
2018-12-17T21:45:25.363Z,101788.67
2018-12-17T21:47:53.004Z,101787.86
2018-12-17T21:50:20.590Z,101786.61
2018-12-17T21:52:48.221Z,101791.43
2018-12-17T21:55:16.599Z,101788.35
2018-12-17T21:57:44.147Z,101791.29
2018-12-17T22:00:11.805Z,101794.66
2018-12-17T22:02:39.274Z,101804.47
2018-12-17T22:05:06.956Z,101797.16
2018-12-17T22:07:34.538Z,101803.13
2018-12-17T22:10:02.007Z,101799.39
2018-12-17T22:12:29.612Z,101801.94
2018-12-17T22:14:57.285Z,101797.62
2018-12-17T22:17:24.794Z,101790.83
2018-12-17T22:19:52.409Z,101792.51
2018-12-17T22:22:19.884Z,101800.64
2018-12-17T22:24:47.383Z,101801.19
2018-12-17T22:27:14.860Z,101800.72
2018-12-17T22:29:42.329Z,101804.96
2018-12-17T22:32:09.948Z,101811.35
2018-12-17T22:34:37.387Z,101812.22
2018-12-17T22:37:04.908Z,101809.17
2018-12-17T22:39:32.482Z,101811.73
2018-12-17T22:42:00.002Z,101814.72
2018-12-17T22:44:27.523Z,101822.83
2018-12-17T22:46:55.143Z,101817.39
2018-12-17T22:49:22.649Z,101822.99
2018-12-17T22:51:50.151Z,101827.23
2018-12-17T22:54:17.590Z,101825.93
2018-12-17T22:56:45.066Z,101830.20
2018-12-17T22:59:12.537Z,101828.59
2018-12-17T23:01:40.180Z,101831.07
2018-12-17T23:04:07.760Z,101830.66
2018-12-17T23:06:35.388Z,101830.28
2018-12-17T23:09:05.219Z,101827.78
2018-12-17T23:11:50.306Z,101828.16
2018-12-17T23:14:29.741Z,101841.38
2018-12-17T23:17:09.165Z,101835.83
2018-12-17T23:19:41.368Z,101838.39
2018-12-17T23:22:09.967Z,101838.80
2018-12-17T23:24:38.101Z,101836.79
2018-12-17T23:27:09.161Z,101843.27
2018-12-17T23:29:38.153Z,101840.70
2018-12-17T23:32:06.074Z,101839.02
2018-12-17T23:34:34.191Z,101844.16
2018-12-17T23:37:02.472Z,101848.40
2018-12-17T23:39:31.023Z,101836.47
2018-12-17T23:41:58.643Z,101838.17
2018-12-17T23:44:26.121Z,101842.80
2018-12-17T23:46:53.634Z,101844.14
2018-12-17T23:49:21.605Z,101842.06
2018-12-17T23:51:50.602Z,101842.53
2018-12-17T23:54:18.146Z,101836.98
2018-12-17T23:56:45.718Z,101843.90
2018-12-17T23:59:13.421Z,101840.06
